Baraboo, WI (53913)

6:27 PM CDT on August 28, 2015 (GMT -0500)
Baraboo Wisconsin Dells | | Change Station
CLOSE
Current Station
Airport
Location: Baraboo,
Elevation: 978 ft
Nearby Weather Stations

Elev 978 ft 43.52 °N, 89.77 °W | Updated 12 minutes ago

Rain
Rain
62 °F
Feels Like 62 °F
N
4
Wind Variable Wind from SSW

Today
High -- | Low -- °F
--% Chance of Precip.
Yesterday
High -- | Low -- °F
Precip. -- in
6:18 AM 7:41 PM
Waxing Gibbous, 99% visible
Pressure 30.09 in
Visibility 4.0 miles
Clouds Scattered Clouds 2100 ft
Scattered Clouds 4600 ft
Overcast 6500 ft
Dew Point 59 °F
Humidity 91%
Rainfall 0.65 in
Snow Depth Not available.
UV 0 out of 12
Pollen 3.70 out of 12
Air Quality Not available.
Flu Activity Not available.
METAR KDLL 282315Z AUTO 20003KT 4SM RA SCT021 SCT046 OVC065 16/15 A3009 RMK AO2 LTG DSNT N P0004 T01640150
Pressure 30.09 in
Visibility 4.0 miles
Clouds Scattered Clouds 2100 ft
Scattered Clouds 4600 ft
Overcast 6500 ft
Dew Point 59 °F
Humidity 91%
Rainfall 0.65 in
Snow Depth Not available.
UV 0 out of 12
Pollen 3.70 out of 12
Air Quality Not available.
Flu Activity Not available.
METAR KDLL 282315Z AUTO 20003KT 4SM RA SCT021 SCT046 OVC065 16/15 A3009 RMK AO2 LTG DSNT N P0004 T01640150

10-Day Weather Forecast

×

Almanac

Astronomy

Aug. 28, 2015 Rise Set
Actual Time
Civil Twilight
Nautical Twilight
Astronomical Twilight
Moon
Length of Visible Light
Length of Day
Tomorrow will be .
, % of the Moon is Illuminated

Today's Extremes

State Highs State Lows

Community

WunderPhotos

Upload Photos

1,850,530 photos uploaded!

WunderBlogs® & News

Nearby

Air Quality

  Air Quality AQ Index Pollutant
Not available.

Snow Depth

Station Depth Elevation

Earthquake Activity

City Distance Mag. Time & Date
Minimum magnitude displayed is 2.5.

Coastal Water Temperatures

Place Temperature

Stations

Nearby Weather Stations

Station Location Temp. Windchill Dew Point Humidity Wind Precip. Elev Updated Type